Time;durP1;ratioP1;P1;durP2;ratioP2;P2;SDS_P1;SDS_P2;PMS_P1;PMS_P2;Temp;Humidity;BMP_temperature;BMP_pressure;BME280_temperature;BME280_humidity;BME280_pressure;Samples;Min_cycle;Max_cycle;Signal;HPM_P1;HPM_P2
2023/10/12 00:01:59;;;;;;;5.45;1.63;;;13.80;99.90;;;;;;4991290;28;20053;-87
2023/10/12 00:04:43;;;;;;;9.40;1.90;;;13.70;99.90;;;;;;5008084;28;20061;-87
2023/10/12 00:07:15;;;;;;;5.00;1.67;;;13.80;99.90;;;;;;5007672;28;20089;-87
2023/10/12 00:09:48;;;;;;;;;;;13.70;99.90;;;;;;5006665;28;20125;-86
2023/10/12 00:12:24;;;;;;;4.45;1.25;;;13.70;99.90;;;;;;5007870;28;19983;-87
2023/10/12 00:14:56;;;;;;;8.65;2.10;;;13.60;99.90;;;;;;5006784;28;20129;-86
2023/10/12 00:17:23;;;;;;;3.60;1.50;;;13.60;99.90;;;;;;5007289;28;20567;-86
2023/10/12 00:19:53;;;;;;;5.15;1.40;;;13.50;99.90;;;;;;4975998;28;20058;-87
2023/10/12 00:22:19;;;;;;;6.18;1.70;;;13.60;99.90;;;;;;4978827;28;20046;-87
2023/10/12 00:24:45;;;;;;;6.72;1.42;;;13.60;99.90;;;;;;4987686;28;20515;-87
2023/10/12 00:27:14;;;;;;;6.13;1.65;;;13.60;99.90;;;;;;4987947;28;20042;-87
2023/10/12 00:29:41;;;;;;;5.45;1.60;;;13.60;99.90;;;;;;4988493;28;20101;-88
2023/10/12 00:32:07;;;;;;;9.68;1.65;;;13.50;99.90;;;;;;4988496;28;20168;-88
2023/10/12 00:34:47;;;;;;;8.80;1.98;;;13.60;99.90;;;;;;4987428;28;20097;-88
2023/10/12 00:37:14;;;;;;;8.35;1.70;;;13.60;99.90;;;;;;4987848;28;20420;-87
2023/10/12 00:42:18;;;;;;;6.28;1.63;;;14.20;99.90;;;;;;4977786;28;20813;-88
2023/10/12 00:44:47;;;;;;;8.40;2.17;;;13.60;99.90;;;;;;4987812;28;20118;-88
2023/10/12 00:47:19;;;;;;;7.20;2.03;;;13.50;99.90;;;;;;4970449;28;20042;-88
2023/10/12 00:49:48;;;;;;;5.15;1.80;;;13.60;99.90;;;;;;4986914;28;20050;-89
2023/10/12 00:52:23;;;;;;;5.65;1.67;;;13.60;99.90;;;;;;4963646;28;20086;-89
2023/10/12 00:54:56;;;;;;;6.75;1.80;;;13.60;99.90;;;;;;4958008;28;20058;-89
2023/10/12 00:57:23;;;;;;;5.97;1.50;;;14.40;99.90;;;;;;4972781;28;20042;-88
2023/10/12 00:59:52;;;;;;;9.18;1.90;;;13.20;99.90;;;;;;4987941;28;20042;-88
2023/10/12 01:02:24;;;;;;;8.07;1.95;;;13.50;99.90;;;;;;4988239;28;20038;-89
2023/10/12 01:04:53;;;;;;;7.63;2.03;;;13.80;99.90;;;;;;4987574;28;20411;-89
2023/10/12 01:07:20;;;;;;;5.45;1.77;;;14.10;99.90;;;;;;4973016;28;20128;-89
2023/10/12 01:09:54;;;;;;;8.98;2.00;;;13.50;99.90;;;;;;4971854;28;20050;-88
2023/10/12 01:12:19;;;;;;;6.50;1.63;;;13.50;99.90;;;;;;4987861;28;20485;-89
2023/10/12 01:14:54;;;;;;;11.40;1.70;;;13.80;99.90;;;;;;4987253;28;20089;-88
2023/10/12 01:17:35;;;;;;;7.95;1.90;;;13.40;99.90;;;;;;4987863;28;20082;-89
2023/10/12 01:20:10;;;;;;;7.25;2.00;;;13.90;99.90;;;;;;5005780;28;20475;-88
2023/10/12 01:22:39;;;;;;;7.20;2.10;;;13.50;99.90;;;;;;5004940;28;20100;-88
2023/10/12 01:25:19;;;;;;;5.65;1.85;;;13.30;99.90;;;;;;5006397;28;20168;-87
2023/10/12 01:27:45;;;;;;;10.77;1.90;;;13.40;99.90;;;;;;5006658;28;20492;-87
2023/10/12 01:30:35;;;;;;;5.45;1.77;;;13.40;99.90;;;;;;5006960;28;20038;-87
2023/10/12 01:33:02;;;;;;;8.45;2.10;;;13.40;99.90;;;;;;5007059;28;20050;-87
2023/10/12 01:35:37;;;;;;;8.48;1.90;;;13.40;99.90;;;;;;5005988;28;20124;-87
2023/10/12 01:38:08;;;;;;;8.15;2.22;;;13.40;99.90;;;;;;5006366;28;20042;-87
2023/10/12 01:43:17;;;;;;;7.20;2.17;;;13.30;99.90;;;;;;5006728;28;20085;-87
2023/10/12 01:45:43;;;;;;;7.45;1.95;;;13.30;99.90;;;;;;5005725;28;20566;-87
2023/10/12 01:48:22;;;;;;;7.13;1.90;;;13.30;99.90;;;;;;5005652;28;20103;-87
2023/10/12 01:50:49;;;;;;;6.70;2.00;;;13.30;99.90;;;;;;5005741;28;20096;-86
2023/10/12 01:55:51;;;;;;;8.07;1.88;;;13.60;99.90;;;;;;5009336;28;20050;-87
2023/10/12 01:58:18;;;;;;;8.55;2.22;;;13.30;99.90;;;;;;5009599;28;20040;-86
2023/10/12 02:00:51;;;;;;;7.93;1.63;;;13.30;99.90;;;;;;5010130;28;20057;-87
2023/10/12 02:03:20;;;;;;;9.45;2.30;;;13.30;99.90;;;;;;5009750;28;20061;-87
2023/10/12 02:05:58;;;;;;;9.25;2.25;;;13.30;99.90;;;;;;5009458;28;20508;-87
2023/10/12 02:08:32;;;;;;;4.65;2.30;;;13.30;99.90;;;;;;5010908;28;20046;-87
2023/10/12 02:11:26;;;;;;;6.78;2.78;;;13.30;99.90;;;;;;5009971;28;20062;-87
2023/10/12 02:13:54;;;;;;;10.35;2.65;;;13.30;99.90;;;;;;4979433;28;20153;-87
2023/10/12 02:16:24;;;;;;;9.07;2.17;;;13.30;99.90;;;;;;5007717;28;20085;-87
2023/10/12 02:18:50;;;;;;;6.10;2.20;;;13.30;99.90;;;;;;5010290;28;20054;-88
2023/10/12 02:21:22;;;;;;;5.95;2.50;;;13.30;99.90;;;;;;5009223;28;20487;-88
2023/10/12 02:26:37;;;;;;;9.05;2.63;;;13.30;99.90;;;;;;5009203;28;20060;-87
2023/10/12 02:34:19;;;;;;;8.90;2.47;;;13.70;99.90;;;;;;5008041;28;20053;-88
2023/10/12 02:39:39;;;;;;;8.70;2.42;;;13.20;99.90;;;;;;5010025;28;20096;-88
2023/10/12 02:42:17;;;;;;;5.30;2.10;;;13.30;99.90;;;;;;4993894;28;20050;-88
2023/10/12 02:47:22;;;;;;;5.90;2.15;;;13.20;99.90;;;;;;5010694;28;20125;-88
2023/10/12 02:52:38;;;;;;;9.77;2.22;;;13.20;99.90;;;;;;5009231;28;20050;-87
2023/10/12 02:57:54;;;;;;;7.88;2.10;;;13.20;99.90;;;;;;5009561;28;20555;-87
2023/10/12 03:00:34;;;;;;;5.68;1.95;;;13.20;99.90;;;;;;4993307;28;20088;-88
2023/10/12 03:03:07;;;;;;;8.38;2.17;;;13.20;99.90;;;;;;4992628;28;20038;-88
2023/10/12 03:05:46;;;;;;;8.90;3.53;;;13.20;99.90;;;;;;4992188;28;20045;-88
2023/10/12 03:08:13;;;;;;;6.47;2.47;;;13.20;99.90;;;;;;4993912;28;20081;-89
2023/10/12 03:11:00;;;;;;;8.20;2.00;;;13.10;99.90;;;;;;4992837;28;20144;-88
2023/10/12 03:13:35;;;;;;;12.15;2.05;;;13.20;99.90;;;;;;5010468;28;20034;-88
2023/10/12 03:18:36;;;;;;;5.70;2.10;;;13.10;99.90;;;;;;5008464;28;20058;-89
2023/10/12 03:21:11;;;;;;;7.90;2.25;;;13.10;99.90;;;;;;4994250;28;20124;-89
2023/10/12 03:23:38;;;;;;;5.55;2.10;;;13.00;99.90;;;;;;5009521;28;20210;-89
2023/10/12 03:26:24;;;;;;;7.90;2.83;;;13.00;99.90;;;;;;5009398;28;20081;-89
2023/10/12 03:34:30;;;;;;;5.75;2.10;;;13.00;99.90;;;;;;5010469;28;20305;-88
2023/10/12 03:36:58;;;;;;;8.45;2.22;;;13.70;99.90;;;;;;5006450;28;20038;-89
2023/10/12 03:39:27;;;;;;;7.68;2.20;;;13.00;99.90;;;;;;4993913;28;20042;-88
2023/10/12 03:44:49;;;;;;;7.88;2.50;;;13.00;99.90;;;;;;5009655;28;20057;-88
2023/10/12 03:52:29;;;;;;;8.13;2.50;;;13.20;99.90;;;;;;5009399;28;20052;-88
2023/10/12 03:54:55;;;;;;;6.63;2.38;;;13.00;99.90;;;;;;5008708;28;20065;-88
2023/10/12 03:58:07;;;;;;;8.93;2.55;;;12.90;99.90;;;;;;4993374;28;20056;-89
2023/10/12 04:08:00;;;;;;;10.93;2.77;;;12.90;99.90;;;;;;5008532;28;20050;-87
2023/10/12 04:21:23;;;;;;;4.43;2.10;;;13.00;99.90;;;;;;5006762;28;20108;-88
2023/10/12 04:28:53;;;;;;;9.80;2.50;;;12.90;99.90;;;;;;5009771;28;20046;-89
2023/10/12 04:31:32;;;;;;;8.98;2.13;;;13.00;99.90;;;;;;5008742;28;20069;-88
2023/10/12 04:41:54;;;;;;;6.05;2.10;;;13.00;99.90;;;;;;5006170;28;20440;-87
2023/10/12 04:46:59;;;;;;;6.82;2.22;;;12.60;99.90;;;;;;5008776;28;20053;-88
2023/10/12 04:54:59;;;;;;;12.43;2.85;;;12.90;99.90;;;;;;5007877;28;20061;-87
2023/10/12 04:57:27;;;;;;;11.23;2.40;;;12.90;99.90;;;;;;5007269;28;20508;-87
2023/10/12 05:00:16;;;;;;;9.10;2.42;;;13.00;99.90;;;;;;5007817;28;20060;-87
2023/10/12 05:07:58;;;;;;;11.27;2.92;;;12.90;99.90;;;;;;5008813;28;20445;-87
2023/10/12 05:10:31;;;;;;;7.10;2.17;;;12.90;99.90;;;;;;4991393;28;20096;-86
2023/10/12 05:13:05;;;;;;;9.75;2.50;;;12.90;99.90;;;;;;5008490;28;20061;-87
2023/10/12 05:15:42;;;;;;;7.95;1.80;;;13.00;99.90;;;;;;5007344;28;20053;-87
2023/10/12 05:18:09;;;;;;;7.78;2.05;;;12.90;99.90;;;;;;4993430;28;20060;-88
2023/10/12 05:20:35;;;;;;;6.82;2.28;;;13.00;99.90;;;;;;4993268;28;20049;-87
2023/10/12 05:23:04;;;;;;;9.10;2.15;;;13.00;99.90;;;;;;5008238;28;20120;-86
2023/10/12 05:25:47;;;;;;;6.20;2.00;;;12.90;99.90;;;;;;5008393;28;20049;-87
2023/10/12 05:28:35;;;;;;;4.97;2.17;;;13.00;99.90;;;;;;5004875;28;20053;-86
2023/10/12 05:36:09;;;;;;;7.25;2.25;;;12.90;99.90;;;;;;5011837;28;20003;-88
2023/10/12 05:38:36;;;;;;;7.43;2.30;;;12.90;99.90;;;;;;5011001;28;20049;-87
2023/10/12 05:41:08;;;;;;;7.88;2.70;;;12.90;99.90;;;;;;5010844;28;20052;-88
2023/10/12 05:43:40;;;;;;;8.75;2.90;;;12.90;99.90;;;;;;5009066;28;20853;-88
2023/10/12 05:46:20;;;;;;;9.60;3.03;;;12.90;99.90;;;;;;5011209;28;20053;-88
2023/10/12 05:48:46;;;;;;;9.25;2.63;;;12.90;99.90;;;;;;5011232;28;20143;-88
2023/10/12 05:51:19;;;;;;;7.07;2.72;;;12.80;99.90;;;;;;5011666;28;20442;-87
2023/10/12 05:54:06;;;;;;;9.15;3.05;;;12.80;99.90;;;;;;5009979;28;20055;-85
2023/10/12 05:56:36;;;;;;;7.75;2.90;;;12.80;99.90;;;;;;5007415;28;20125;-87
2023/10/12 05:59:03;;;;;;;11.82;2.75;;;12.70;99.90;;;;;;4994401;28;20056;-86
2023/10/12 06:01:32;;;;;;;10.15;3.00;;;13.40;99.90;;;;;;5010628;28;20476;-86
2023/10/12 06:04:00;;;;;;;14.63;2.85;;;12.70;99.90;;;;;;5011176;28;20425;-87
2023/10/12 06:06:26;;;;;;;6.22;2.17;;;12.80;99.90;;;;;;5010138;28;20495;-86
2023/10/12 06:08:56;;;;;;;5.28;2.50;;;12.60;99.90;;;;;;5011353;28;20041;-88
2023/10/12 06:11:26;;;;;;;11.07;2.80;;;12.80;99.90;;;;;;4994736;28;20139;-85
2023/10/12 06:13:52;;;;;;;9.60;3.10;;;12.60;99.90;;;;;;5009880;28;20049;-83
2023/10/12 06:16:20;;;;;;;7.57;2.75;;;12.50;99.90;;;;;;5012560;28;20052;-88
2023/10/12 06:18:47;;;;;;;6.63;2.30;;;12.50;99.90;;;;;;4995984;28;20069;-90
2023/10/12 06:21:19;;;;;;;6.55;2.47;;;12.50;99.90;;;;;;4992770;28;20131;-87
2023/10/12 06:23:49;;;;;;;6.95;2.53;;;12.40;99.90;;;;;;4993660;28;20045;-86
2023/10/12 06:26:30;;;;;;;7.80;2.65;;;12.40;99.90;;;;;;4994060;28;20049;-87
2023/10/12 06:28:57;;;;;;;8.02;2.95;;;12.30;99.90;;;;;;4994593;28;20068;-86
2023/10/12 06:31:25;;;;;;;9.10;2.42;;;12.30;99.90;;;;;;5011270;28;20068;-87
2023/10/12 06:33:55;;;;;;;7.72;2.50;;;12.30;99.90;;;;;;5011065;28;20046;-87
2023/10/12 06:36:24;;;;;;;7.93;2.55;;;12.30;99.90;;;;;;5010550;28;20057;-87
2023/10/12 06:46:46;;;;;;;8.68;2.35;;;12.30;99.90;;;;;;5016317;28;20073;-88
2023/10/12 06:49:18;;;;;;;10.48;2.90;;;12.30;99.90;;;;;;5015325;28;20056;-87
2023/10/12 06:51:54;;;;;;;8.13;2.50;;;12.30;99.90;;;;;;5017068;28;20415;-89
2023/10/12 06:54:39;;;;;;;6.50;2.67;;;12.10;99.90;;;;;;5000286;28;20048;-89
2023/10/12 06:57:29;;;;;;;9.80;2.70;;;12.40;99.90;;;;;;5000684;28;20137;-88
2023/10/12 07:02:28;;;;;;;9.60;2.72;;;12.30;99.90;;;;;;4996007;28;20050;-90
2023/10/12 07:04:57;;;;;;;9.25;2.95;;;12.50;99.90;;;;;;5006983;28;20053;-88
2023/10/12 07:07:28;;;;;;;11.77;2.88;;;12.30;99.90;;;;;;5000147;28;20133;-89
2023/10/12 07:10:31;;;;;;;6.57;2.85;;;12.40;99.90;;;;;;4998735;28;20077;-89
2023/10/12 07:12:50;;;;;;;8.10;2.65;;;12.50;99.90;;;;;;5011219;28;20136;-88
2023/10/12 07:15:22;;;;;;;11.15;3.40;;;12.50;99.90;;;;;;5013572;28;20056;-90
2023/10/12 07:17:52;;;;;;;8.40;3.30;;;12.60;99.90;;;;;;5012486;28;20052;-89
2023/10/12 07:20:40;;;;;;;10.98;3.08;;;12.70;99.90;;;;;;5011842;28;20059;-86
2023/10/12 07:23:16;;;;;;;10.10;3.33;;;12.70;99.90;;;;;;5013182;28;20050;-87
2023/10/12 07:25:59;;;;;;;10.43;3.55;;;12.80;99.90;;;;;;5012692;28;20041;-87
2023/10/12 07:28:33;;;;;;;7.20;3.10;;;12.90;99.90;;;;;;5011618;28;20130;-87
2023/10/12 07:33:58;;;;;;;9.63;3.63;;;13.10;99.90;;;;;;5013058;28;20406;-88
2023/10/12 07:41:53;;;;;;;12.70;2.88;;;13.60;99.90;;;;;;5002403;28;20058;-87
2023/10/12 07:44:23;;;;;;;8.07;2.90;;;13.80;99.90;;;;;;4982646;28;20042;-87
2023/10/12 07:46:48;;;;;;;8.20;2.55;;;14.30;99.90;;;;;;4976184;28;20053;-88
2023/10/12 07:52:04;;;;;;;8.63;2.67;;;14.50;99.90;;;;;;5011572;28;20057;-86
2023/10/12 07:54:54;;;;;;;7.97;2.35;;;14.70;99.90;;;;;;5008952;28;20107;-86
2023/10/12 07:57:29;;;;;;;9.15;2.53;;;14.90;99.90;;;;;;5009408;28;20092;-86
2023/10/12 08:05:16;;;;;;;9.02;1.92;;;14.60;99.90;;;;;;5012965;28;20586;-87
2023/10/12 08:13:26;;;;;;;8.73;2.20;;;14.60;99.90;;;;;;5009836;28;20125;-89
2023/10/12 08:15:56;;;;;;;5.28;1.75;;;14.60;99.90;;;;;;5007386;28;20081;-88
2023/10/12 08:24:10;;;;;;;5.00;1.77;;;14.60;99.90;;;;;;5009907;28;20082;-86
2023/10/12 08:29:57;;;;;;;6.35;1.90;;;14.60;99.90;;;;;;5009051;28;20064;-88
2023/10/12 08:32:15;;;;;;;8.65;2.20;;;14.70;99.90;;;;;;5009079;28;20172;-90
2023/10/12 08:34:41;;;;;;;7.53;1.88;;;14.70;99.90;;;;;;5007866;28;20037;-90
2023/10/12 08:37:17;;;;;;;6.10;2.13;;;14.70;99.90;;;;;;5009134;28;20061;-87
2023/10/12 08:45:09;;;;;;;7.57;1.88;;;14.80;99.90;;;;;;5011301;28;20058;-89
2023/10/12 08:50:47;;;;;;;8.48;2.15;;;14.70;99.90;;;;;;5010389;28;20630;-90
2023/10/12 08:53:02;;;;;;;5.65;2.17;;;14.80;99.90;;;;;;5010239;28;20046;-90
2023/10/12 08:55:31;;;;;;;9.30;1.80;;;14.80;99.90;;;;;;4994589;28;20157;-90
2023/10/12 08:58:18;;;;;;;7.53;1.50;;;14.80;99.90;;;;;;4995425;28;20045;-90
2023/10/12 09:03:38;;;;;;;7.32;2.03;;;14.80;99.90;;;;;;5010472;28;20081;-89
2023/10/12 09:06:19;;;;;;;7.32;1.65;;;14.80;99.90;;;;;;4993830;28;20558;-89
2023/10/12 09:08:46;;;;;;;9.55;1.85;;;14.80;99.90;;;;;;4994069;28;20479;-89
2023/10/12 09:13:38;;;;;;;7.90;1.65;;;14.80;99.90;;;;;;5009861;28;20050;-89
2023/10/12 09:16:07;;;;;;;5.45;2.08;;;14.80;99.90;;;;;;4994181;28;20100;-89
2023/10/12 09:18:47;;;;;;;4.55;1.77;;;14.90;99.90;;;;;;4993386;28;20061;-89
2023/10/12 09:23:47;;;;;;;6.03;1.77;;;15.10;99.90;;;;;;5009997;28;20128;-90
2023/10/12 09:31:14;;;;;;;7.53;2.20;;;15.10;99.90;;;;;;5010395;28;20058;-89
2023/10/12 09:33:53;;;;;;;7.22;1.70;;;15.20;99.90;;;;;;5010021;28;20084;-89
2023/10/12 09:36:19;;;;;;;6.70;1.85;;;16.10;99.90;;;;;;5009987;28;20496;-92
2023/10/12 09:38:46;;;;;;;7.07;1.80;;;15.50;99.90;;;;;;4995564;28;20478;-91
2023/10/12 09:41:14;;;;;;;10.10;1.85;;;15.30;99.90;;;;;;5010528;28;20129;-91
2023/10/12 09:43:44;;;;;;;5.35;1.70;;;15.30;99.90;;;;;;4991503;28;20038;-90
2023/10/12 09:46:13;;;;;;;6.13;1.80;;;15.40;99.90;;;;;;4990268;28;20464;-89
2023/10/12 09:48:40;;;;;;;6.82;1.70;;;15.50;99.90;;;;;;4989783;28;20145;-87
2023/10/12 09:51:17;;;;;;;8.80;1.95;;;15.50;99.90;;;;;;5007649;28;20057;-86
2023/10/12 09:53:57;;;;;;;7.35;2.05;;;15.50;99.90;;;;;;4990721;28;20045;-89
2023/10/12 09:56:28;;;;;;;7.32;1.63;;;15.50;99.90;;;;;;5013903;28;20490;-87
2023/10/12 09:59:13;;;;;;;4.75;2.08;;;15.50;99.90;;;;;;5001833;28;20400;-87
2023/10/12 10:09:46;;;;;;;9.38;1.63;;;15.70;99.90;;;;;;5007360;28;20543;-87
2023/10/12 10:12:20;;;;;;;6.63;1.50;;;15.70;99.90;;;;;;4991598;28;20034;-87
2023/10/12 10:14:53;;;;;;;7.65;2.13;;;15.60;99.90;;;;;;5010944;28;20095;-87
2023/10/12 10:17:24;;;;;;;5.43;1.60;;;15.60;99.90;;;;;;4987622;28;20049;-88
2023/10/12 10:20:19;;;;;;;6.88;1.70;;;15.60;99.90;;;;;;5009979;28;20065;-87
2023/10/12 10:22:50;;;;;;;6.93;1.58;;;15.70;99.90;;;;;;4994815;28;20069;-87
2023/10/12 10:25:18;;;;;;;8.07;2.00;;;15.50;99.90;;;;;;4993519;28;20093;-88
2023/10/12 10:27:43;;;;;;;2.88;1.30;;;15.50;99.90;;;;;;4992351;28;20099;-88
2023/10/12 10:30:24;;;;;;;7.43;1.48;;;15.50;99.90;;;;;;5010056;28;20053;-88
2023/10/12 10:33:12;;;;;;;9.07;1.75;;;15.40;99.90;;;;;;4991440;28;20133;-87
2023/10/12 10:35:57;;;;;;;7.22;1.50;;;15.50;99.90;;;;;;4975178;28;20057;-86
2023/10/12 10:38:30;;;;;;;6.80;1.83;;;15.50;99.90;;;;;;4994841;28;20473;-85
2023/10/12 10:41:05;;;;;;;9.73;2.38;;;15.50;99.90;;;;;;5009591;28;20104;-87
2023/10/12 10:43:36;;;;;;;9.13;2.22;;;15.60;99.90;;;;;;5009991;28;20046;-85
2023/10/12 10:46:05;;;;;;;12.10;2.45;;;15.50;99.90;;;;;;5007810;28;20046;-86
2023/10/12 10:48:33;;;;;;;12.70;1.90;;;15.80;99.90;;;;;;5010103;28;20108;-86
2023/10/12 10:51:02;;;;;;;7.28;1.70;;;15.60;99.90;;;;;;5009457;28;20057;-86
2023/10/12 10:53:31;;;;;;;5.88;1.50;;;15.50;99.90;;;;;;5009133;28;20046;-86
2023/10/12 10:56:00;;;;;;;5.35;1.55;;;15.40;99.90;;;;;;5008326;28;20584;-86
2023/10/12 10:58:25;;;;;;;6.63;1.70;;;15.70;99.90;;;;;;5008669;28;20095;-87
2023/10/12 11:00:57;;;;;;;8.88;1.77;;;15.50;99.90;;;;;;5007782;28;20466;-86
2023/10/12 11:03:25;;;;;;;8.85;2.10;;;15.50;99.90;;;;;;5009251;28;20077;-86
2023/10/12 11:05:51;;;;;;;9.75;1.80;;;16.00;99.90;;;;;;4992838;28;20056;-85
2023/10/12 11:08:26;;;;;;;4.30;1.45;;;16.00;99.90;;;;;;4993284;28;20038;-86
2023/10/12 11:13:38;;;;;;;7.82;1.70;;;15.50;99.90;;;;;;4990794;28;20145;-86
2023/10/12 11:18:54;;;;;;;4.38;1.50;;;15.50;99.90;;;;;;5009046;28;20160;-87
2023/10/12 11:21:21;;;;;;;8.00;1.95;;;15.60;99.90;;;;;;4982015;28;20141;-87
2023/10/12 11:23:50;;;;;;;9.07;1.90;;;15.60;99.90;;;;;;4992352;28;20051;-90
2023/10/12 11:26:19;;;;;;;4.72;1.30;;;15.70;99.90;;;;;;4991744;28;20126;-90
2023/10/12 11:29:00;;;;;;;6.38;1.70;;;15.60;99.90;;;;;;4990143;28;20404;-89
2023/10/12 11:31:31;;;;;;;6.22;2.38;;;15.70;99.90;;;;;;4976335;28;20129;-88
2023/10/12 11:33:58;;;;;;;5.90;1.50;;;16.10;99.90;;;;;;4991866;28;20042;-87
2023/10/12 11:36:25;;;;;;;6.90;1.55;;;15.80;99.90;;;;;;4990198;28;20126;-87
2023/10/12 11:39:01;;;;;;;7.05;2.22;;;15.90;99.90;;;;;;5007962;28;20050;-87
2023/10/12 11:41:30;;;;;;;10.60;2.40;;;15.90;99.90;;;;;;5008055;28;20053;-87
2023/10/12 11:44:05;;;;;;;6.03;1.60;;;15.90;99.90;;;;;;5006290;28;20454;-87
2023/10/12 11:46:43;;;;;;;7.35;1.60;;;15.90;99.90;;;;;;4989911;28;20046;-87
2023/10/12 11:49:10;;;;;;;5.18;1.60;;;15.90;99.90;;;;;;5008212;28;20121;-88
2023/10/12 11:51:40;;;;;;;5.03;1.65;;;16.20;99.90;;;;;;5010348;28;20109;-88
2023/10/12 11:54:08;;;;;;;5.00;1.90;;;15.90;99.90;;;;;;5011078;28;20054;-92
2023/10/12 11:56:44;;;;;;;5.07;1.45;;;15.90;99.90;;;;;;5008891;28;20586;-88
2023/10/12 11:59:19;;;;;;;7.05;1.52;;;15.80;99.90;;;;;;5008816;28;20145;-88
2023/10/12 12:01:45;;;;;;;5.82;1.65;;;15.70;99.90;;;;;;4986942;28;20543;-88
2023/10/12 12:04:16;;;;;;;6.80;1.67;;;15.50;99.90;;;;;;4989678;28;20041;-88
2023/10/12 12:06:42;;;;;;;6.82;1.50;;;15.70;99.90;;;;;;4979910;28;20173;-88
2023/10/12 12:09:08;;;;;;;7.55;1.55;;;15.10;99.90;;;;;;4991832;28;20065;-87
2023/10/12 12:11:37;;;;;;;7.43;1.92;;;15.70;99.90;;;;;;5006515;28;20164;-88
2023/10/12 12:14:06;;;;;;;8.68;2.03;;;15.70;99.90;;;;;;5007491;28;20635;-88
2023/10/12 12:16:34;;;;;;;5.75;1.92;;;15.70;99.90;;;;;;4990207;28;20046;-87
2023/10/12 12:19:00;;;;;;;9.20;1.83;;;15.60;99.90;;;;;;5007688;28;20058;-88
2023/10/12 12:21:34;;;;;;;9.18;2.03;;;15.60;99.90;;;;;;5007316;28;20053;-87
2023/10/12 12:24:21;;;;;;;5.53;1.45;;;15.60;99.90;;;;;;4991111;28;20073;-86
2023/10/12 12:26:50;;;;;;;10.65;2.88;;;15.60;99.90;;;;;;4972444;28;20140;-88
2023/10/12 12:29:16;;;;;;;6.30;2.55;;;15.50;99.90;;;;;;4989058;28;20050;-87
2023/10/12 12:31:42;;;;;;;6.53;1.63;;;15.40;99.90;;;;;;5003700;28;20042;-87
2023/10/12 12:34:08;;;;;;;6.93;1.77;;;15.40;99.90;;;;;;4992431;28;20152;-86
2023/10/12 12:36:34;;;;;;;6.43;1.50;;;15.40;99.90;;;;;;4989865;28;20504;-87
2023/10/12 12:39:01;;;;;;;7.57;1.80;;;15.40;99.90;;;;;;5007602;28;20056;-87
2023/10/12 12:41:29;;;;;;;6.88;1.60;;;15.40;99.90;;;;;;5005473;28;20046;-85
2023/10/12 12:43:58;;;;;;;7.60;1.30;;;15.40;99.90;;;;;;5008281;28;20384;-86
2023/10/12 12:46:24;;;;;;;5.72;1.67;;;15.40;99.90;;;;;;5007796;28;20060;-87
2023/10/12 12:48:51;;;;;;;10.60;1.65;;;15.40;99.90;;;;;;5007929;28;20044;-86
2023/10/12 12:51:17;;;;;;;8.63;1.73;;;15.40;99.90;;;;;;5007603;28;20051;-86
2023/10/12 12:53:47;;;;;;;6.75;1.40;;;15.70;99.90;;;;;;5006902;28;20077;-87
2023/10/12 12:56:17;;;;;;;7.50;1.95;;;15.50;99.90;;;;;;5007119;28;20050;-86
2023/10/12 12:58:49;;;;;;;6.00;1.58;;;15.40;99.90;;;;;;5007568;28;20495;-87
2023/10/12 13:01:23;;;;;;;6.38;1.60;;;15.40;99.90;;;;;;5005021;28;20050;-86
2023/10/12 13:03:52;;;;;;;9.13;1.88;;;15.40;99.90;;;;;;5006539;28;20052;-88
2023/10/12 13:06:19;;;;;;;5.40;1.50;;;15.40;99.90;;;;;;5005653;28;20054;-86
2023/10/12 13:08:45;;;;;;;5.68;1.80;;;15.40;99.90;;;;;;5005637;28;20045;-86
2023/10/12 13:11:11;;;;;;;8.40;1.98;;;15.50;99.90;;;;;;4991168;28;20059;-86
2023/10/12 13:13:39;;;;;;;7.95;1.67;;;15.30;99.90;;;;;;5007617;28;20503;-86
2023/10/12 13:16:11;;;;;;;8.82;1.63;;;15.20;99.90;;;;;;5004627;28;20168;-87
2023/10/12 13:18:38;;;;;;;5.82;1.55;;;15.20;99.90;;;;;;4976651;28;20415;-87
2023/10/12 13:21:06;;;;;;;5.45;1.58;;;15.10;99.90;;;;;;5007485;28;20119;-87
2023/10/12 13:23:35;;;;;;;8.70;1.50;;;15.00;99.90;;;;;;4987865;28;20074;-87
2023/10/12 13:26:08;;;;;;;10.13;1.60;;;15.00;99.90;;;;;;4991098;28;20056;-87
2023/10/12 13:28:34;;;;;;;10.88;2.25;;;15.00;99.90;;;;;;4990699;28;20053;-87
2023/10/12 13:31:01;;;;;;;8.57;2.15;;;14.90;99.90;;;;;;5005529;28;20052;-88
2023/10/12 13:33:28;;;;;;;9.77;2.17;;;14.90;99.90;;;;;;5006858;28;20058;-87
2023/10/12 13:35:56;;;;;;;4.20;1.30;;;15.50;99.90;;;;;;5008162;28;20061;-87
2023/10/12 13:38:22;;;;;;;6.53;1.50;;;14.90;99.90;;;;;;5007385;28;20060;-87
2023/10/12 13:40:50;;;;;;;8.18;2.13;;;14.80;99.90;;;;;;4989291;28;20043;-89
2023/10/12 13:43:21;;;;;;;9.00;1.85;;;14.80;99.90;;;;;;4997093;28;20045;-88
2023/10/12 13:45:49;;;;;;;6.95;1.85;;;14.70;99.90;;;;;;4990724;28;20145;-88
2023/10/12 13:48:24;;;;;;;8.27;2.33;;;14.60;99.90;;;;;;5008843;28;20045;-85
2023/10/12 13:53:50;;;;;;;8.52;2.10;;;14.50;99.90;;;;;;5016251;28;20111;-91
2023/10/12 13:56:16;;;;;;;6.88;2.10;;;14.40;99.90;;;;;;5011020;28;20058;-91
2023/10/12 13:58:45;;;;;;;7.95;1.85;;;14.40;99.90;;;;;;4981427;28;20046;-89
2023/10/12 14:01:14;;;;;;;7.95;2.35;;;14.40;99.90;;;;;;4984757;28;20046;-89
2023/10/12 14:03:57;;;;;;;8.00;2.40;;;14.40;99.90;;;;;;4995435;28;20056;-86
2023/10/12 14:06:27;;;;;;;10.15;2.53;;;14.30;99.90;;;;;;5011640;28;20042;-87
2023/10/12 14:08:54;;;;;;;11.60;2.38;;;14.40;99.90;;;;;;5011734;28;20053;-87
2023/10/12 14:11:20;;;;;;;8.82;2.60;;;14.20;99.90;;;;;;5013602;28;20070;-89
2023/10/12 14:13:47;;;;;;;10.13;2.33;;;14.00;99.90;;;;;;5016781;28;20069;-89
2023/10/12 14:16:14;;;;;;;9.32;2.58;;;14.40;99.90;;;;;;5013506;28;20226;-85
2023/10/12 14:18:41;;;;;;;7.95;2.17;;;14.00;99.90;;;;;;4998572;28;20061;-88
2023/10/12 14:21:11;;;;;;;8.18;2.50;;;13.90;99.90;;;;;;5013106;28;20045;-89
2023/10/12 14:23:43;;;;;;;7.18;2.03;;;13.90;99.90;;;;;;5011599;28;20046;-89
2023/10/12 14:26:10;;;;;;;5.85;2.17;;;13.80;99.90;;;;;;5010411;28;20054;-87
2023/10/12 14:28:36;;;;;;;8.18;2.13;;;13.70;99.90;;;;;;5010160;28;20172;-87
2023/10/12 14:31:05;;;;;;;7.28;2.10;;;13.70;99.90;;;;;;5010962;28;20168;-88
2023/10/12 14:33:31;;;;;;;7.78;2.33;;;13.70;99.90;;;;;;4995499;28;20553;-86
2023/10/12 14:35:57;;;;;;;12.65;2.28;;;13.60;99.90;;;;;;5011185;28;20045;-88
2023/10/12 14:38:24;;;;;;;10.00;3.20;;;13.60;99.90;;;;;;4996314;28;20053;-88
2023/10/12 14:40:51;;;;;;;12.15;2.85;;;13.60;99.90;;;;;;5012609;28;20124;-88
2023/10/12 14:43:21;;;;;;;9.32;2.90;;;13.60;99.90;;;;;;5011952;28;20050;-88
2023/10/12 14:45:55;;;;;;;11.85;2.75;;;13.60;99.90;;;;;;5011780;28;20053;-88
2023/10/12 14:48:25;;;;;;;9.05;2.95;;;13.60;99.90;;;;;;4996373;28;20046;-87
2023/10/12 14:51:01;;;;;;;9.25;2.60;;;13.60;99.90;;;;;;4995845;28;20131;-87
2023/10/12 14:53:30;;;;;;;5.80;2.45;;;13.50;99.90;;;;;;4997343;28;20033;-92
2023/10/12 14:55:56;;;;;;;8.45;2.63;;;13.50;99.90;;;;;;5016669;28;20507;-87
2023/10/12 14:58:26;;;;;;;9.02;3.08;;;13.50;99.90;;;;;;5016907;28;20081;-88
2023/10/12 15:00:53;;;;;;;8.88;2.50;;;13.80;99.90;;;;;;4993784;28;20042;-88
2023/10/12 15:03:21;;;;;;;6.88;2.83;;;13.60;99.90;;;;;;4994119;28;20053;-91
2023/10/12 15:05:55;;;;;;;7.55;2.58;;;14.10;99.90;;;;;;5015477;28;20500;-91
2023/10/12 15:08:23;;;;;;;7.47;2.53;;;13.30;99.90;;;;;;4998958;28;20053;-90
2023/10/12 15:10:49;;;;;;;8.25;2.53;;;13.30;99.90;;;;;;5013917;28;20088;-86
2023/10/12 15:13:17;;;;;;;11.93;3.28;;;13.90;99.90;;;;;;4997454;28;20053;-89
2023/10/12 15:15:45;;;;;;;8.02;3.13;;;13.90;99.90;;;;;;5010297;28;20057;-89
2023/10/12 15:18:15;;;;;;;8.30;2.75;;;13.50;99.90;;;;;;5013036;28;20132;-89
2023/10/12 15:20:44;;;;;;;7.05;2.63;;;13.80;99.90;;;;;;5016864;28;20057;-91
2023/10/12 15:23:14;;;;;;;6.30;2.47;;;13.30;99.90;;;;;;5017545;28;20053;-89
2023/10/12 15:25:39;;;;;;;8.45;2.50;;;13.30;99.90;;;;;;5015196;28;20544;-92
2023/10/12 15:28:12;;;;;;;8.63;2.65;;;13.30;99.90;;;;;;5016243;28;20148;-90
2023/10/12 15:30:45;;;;;;;8.82;2.90;;;13.70;99.90;;;;;;5014809;28;20040;-93
2023/10/12 15:33:11;;;;;;;9.60;2.97;;;13.90;99.90;;;;;;4998516;28;20057;-89
2023/10/12 15:35:37;;;;;;;8.45;3.25;;;12.80;99.90;;;;;;4998581;28;20057;-89
2023/10/12 15:38:03;;;;;;;8.65;3.70;;;13.40;99.90;;;;;;5012430;28;20463;-89
2023/10/12 15:40:37;;;;;;;8.18;3.75;;;13.20;99.90;;;;;;4998701;28;20106;-88
2023/10/12 15:43:14;;;;;;;9.68;3.30;;;13.20;99.90;;;;;;5015716;28;20046;-89
2023/10/12 15:45:46;;;;;;;6.13;2.85;;;12.50;99.90;;;;;;5016005;28;20484;-89
2023/10/12 15:48:16;;;;;;;4.22;3.00;;;13.60;99.90;;;;;;5014915;28;20046;-89
2023/10/12 15:50:42;;;;;;;9.48;2.92;;;13.20;99.90;;;;;;5012898;28;20050;-90
2023/10/12 15:53:08;;;;;;;9.60;3.47;;;13.20;99.90;;;;;;5011371;28;20041;-89
2023/10/12 15:55:35;;;;;;;7.25;3.05;;;13.10;99.90;;;;;;4996440;28;20077;-89
2023/10/12 15:58:05;;;;;;;6.07;2.88;;;13.10;99.90;;;;;;4999619;28;20041;-90